createdAt,value
2023-01-09T00:01:35.530Z,9.44
2023-01-09T00:04:03.076Z,9.29
2023-01-09T00:06:30.095Z,9.40
2023-01-09T00:08:57.348Z,9.42
2023-01-09T00:11:24.299Z,9.32
2023-01-09T00:13:51.356Z,9.43
2023-01-09T00:16:18.500Z,9.37
2023-01-09T00:18:45.809Z,9.28
2023-01-09T00:21:14.357Z,9.29
2023-01-09T00:23:41.332Z,9.24
2023-01-09T00:26:12.896Z,9.46
2023-01-09T00:28:40.472Z,9.56
2023-01-09T00:31:08.991Z,9.31
2023-01-09T00:33:57.822Z,9.26
2023-01-09T00:36:25.204Z,9.38
2023-01-09T00:38:52.323Z,9.39
2023-01-09T00:41:36.617Z,9.45
2023-01-09T00:44:22.204Z,9.40
2023-01-09T00:46:55.378Z,9.34
2023-01-09T00:49:23.008Z,9.34
2023-01-09T00:51:50.263Z,9.32
2023-01-09T00:54:19.755Z,9.34
2023-01-09T00:56:46.867Z,9.35
2023-01-09T00:59:13.771Z,9.34
2023-01-09T01:01:41.203Z,9.36
2023-01-09T01:04:26.523Z,9.32
2023-01-09T01:07:11.798Z,9.27
2023-01-09T01:09:38.968Z,9.36
2023-01-09T01:12:07.154Z,9.26
2023-01-09T01:14:38.612Z,9.52
2023-01-09T01:17:07.110Z,9.33
2023-01-09T01:19:35.366Z,9.48
2023-01-09T01:22:02.902Z,9.37
2023-01-09T01:24:32.087Z,9.41
2023-01-09T01:26:59.044Z,9.31
2023-01-09T01:29:26.185Z,9.33
2023-01-09T01:31:54.510Z,9.39
2023-01-09T01:34:23.459Z,9.24
2023-01-09T01:36:50.439Z,9.11
2023-01-09T01:39:17.575Z,9.12
2023-01-09T01:41:44.667Z,9.14
2023-01-09T01:45:01.689Z,9.31
2023-01-09T01:48:04.770Z,9.24
2023-01-09T01:50:47.009Z,9.17
2023-01-09T01:53:38.828Z,9.18
2023-01-09T01:56:25.758Z,9.25
2023-01-09T01:59:05.790Z,9.18
2023-01-09T02:01:33.879Z,9.29
2023-01-09T02:04:02.667Z,9.21
2023-01-09T02:06:30.980Z,9.33
2023-01-09T02:08:58.188Z,9.24
2023-01-09T02:11:25.387Z,9.35
2023-01-09T02:13:52.793Z,9.21
2023-01-09T02:16:19.703Z,9.30
2023-01-09T02:19:09.846Z,9.23
2023-01-09T02:22:04.628Z,9.28
2023-01-09T02:25:01.399Z,9.16
2023-01-09T02:28:10.987Z,9.19
2023-01-09T02:30:53.119Z,9.06
2023-01-09T02:33:57.051Z,9.10
2023-01-09T02:36:39.616Z,9.06
2023-01-09T02:39:32.979Z,9.06
2023-01-09T02:42:25.261Z,9.07
2023-01-09T02:44:52.294Z,9.13
2023-01-09T02:47:20.002Z,9.03
2023-01-09T02:49:55.637Z,9.09
2023-01-09T02:52:34.328Z,8.95
2023-01-09T02:55:33.392Z,9.04
2023-01-09T02:58:37.624Z,9.18
2023-01-09T03:01:22.589Z,9.11
2023-01-09T03:04:12.689Z,8.96
2023-01-09T03:06:56.287Z,8.91
2023-01-09T03:09:27.659Z,8.91
2023-01-09T03:12:04.722Z,8.84
2023-01-09T03:14:33.805Z,8.80
2023-01-09T03:17:06.811Z,8.86
2023-01-09T03:19:35.331Z,8.78
2023-01-09T03:22:03.146Z,8.81
2023-01-09T03:24:30.212Z,8.76
2023-01-09T03:26:58.121Z,8.71
2023-01-09T03:29:25.191Z,8.73
2023-01-09T03:31:52.170Z,8.68
2023-01-09T03:34:19.016Z,8.67
2023-01-09T03:36:45.946Z,8.60
2023-01-09T03:39:12.874Z,8.60
2023-01-09T03:41:39.761Z,8.61
2023-01-09T03:44:06.645Z,8.51
2023-01-09T03:46:33.670Z,8.50
2023-01-09T03:49:00.564Z,8.48
2023-01-09T03:51:27.665Z,8.45
2023-01-09T03:53:54.594Z,8.52
2023-01-09T03:56:21.590Z,8.42
2023-01-09T03:58:50.198Z,8.40
2023-01-09T04:01:17.236Z,8.53
2023-01-09T04:03:44.338Z,8.42
2023-01-09T04:06:12.275Z,8.36
2023-01-09T04:08:39.213Z,8.50
2023-01-09T04:11:06.360Z,8.41
2023-01-09T04:13:33.272Z,8.42
2023-01-09T04:16:00.542Z,8.38
2023-01-09T04:18:27.683Z,8.53
2023-01-09T04:20:55.462Z,8.49
2023-01-09T04:23:22.643Z,8.45
2023-01-09T04:25:49.578Z,8.41
2023-01-09T04:28:16.436Z,8.35
2023-01-09T04:30:43.745Z,8.37
2023-01-09T04:33:10.677Z,8.18
2023-01-09T04:35:37.701Z,8.17
2023-01-09T04:38:04.623Z,8.15
2023-01-09T04:40:31.570Z,8.04
2023-01-09T04:42:58.565Z,8.16
2023-01-09T04:45:25.505Z,8.07
2023-01-09T04:47:52.373Z,7.92
2023-01-09T04:50:19.375Z,8.12
2023-01-09T04:52:46.290Z,8.07
2023-01-09T04:55:13.234Z,7.99
2023-01-09T04:57:40.123Z,8.03
2023-01-09T05:00:12.316Z,7.93
2023-01-09T05:02:41.195Z,7.96
2023-01-09T05:05:11.742Z,7.85
2023-01-09T05:07:39.236Z,8.10
2023-01-09T05:10:08.523Z,8.06
2023-01-09T05:12:36.405Z,8.09
2023-01-09T05:15:05.317Z,7.99
2023-01-09T05:17:32.277Z,7.91
2023-01-09T05:20:00.847Z,7.83
2023-01-09T05:22:28.777Z,7.89
2023-01-09T05:24:55.671Z,7.83
2023-01-09T05:27:23.775Z,7.88
2023-01-09T05:29:50.725Z,7.74
2023-01-09T05:32:17.677Z,7.81
2023-01-09T05:34:44.625Z,7.81
2023-01-09T05:37:11.548Z,7.70
2023-01-09T05:39:38.555Z,7.63
2023-01-09T05:42:05.493Z,7.80
2023-01-09T05:44:32.419Z,7.75
2023-01-09T05:47:00.933Z,7.69
2023-01-09T05:49:28.897Z,7.65
2023-01-09T05:51:55.885Z,7.63
2023-01-09T05:54:24.095Z,7.64
2023-01-09T05:56:50.994Z,7.68
2023-01-09T05:59:18.171Z,7.69
2023-01-09T06:01:45.240Z,7.70
2023-01-09T06:04:12.206Z,7.65
2023-01-09T06:06:40.885Z,7.67
2023-01-09T06:09:08.108Z,7.61
2023-01-09T06:11:35.790Z,7.58
2023-01-09T06:14:03.594Z,7.73
2023-01-09T06:16:30.761Z,7.70
2023-01-09T06:18:57.754Z,7.64
2023-01-09T06:21:25.074Z,7.53
2023-01-09T06:23:51.986Z,7.54
2023-01-09T06:26:18.877Z,7.45
2023-01-09T06:28:45.790Z,7.42
2023-01-09T06:31:13.427Z,7.53
2023-01-09T06:33:40.764Z,7.47
2023-01-09T06:36:08.429Z,7.53
2023-01-09T06:38:36.367Z,7.54
2023-01-09T06:41:03.338Z,7.61
2023-01-09T06:43:30.363Z,7.44
2023-01-09T06:45:57.630Z,7.50
2023-01-09T06:48:25.163Z,7.51
2023-01-09T06:50:57.582Z,7.51
2023-01-09T06:53:24.987Z,7.60
2023-01-09T06:55:52.021Z,7.64
2023-01-09T06:58:18.942Z,7.46
2023-01-09T07:00:49.380Z,7.58
2023-01-09T07:03:21.421Z,7.58
2023-01-09T07:05:49.582Z,7.60
2023-01-09T07:08:16.779Z,7.68
2023-01-09T07:10:44.701Z,7.59
2023-01-09T07:13:11.962Z,7.66
2023-01-09T07:15:39.032Z,7.64
2023-01-09T07:18:06.041Z,7.60
2023-01-09T07:20:34.062Z,7.69
2023-01-09T07:23:01.212Z,7.72
2023-01-09T07:25:29.282Z,7.56
2023-01-09T07:28:00.709Z,7.67
2023-01-09T07:30:29.748Z,7.64
2023-01-09T07:32:57.184Z,7.72
2023-01-09T07:35:25.293Z,7.62
2023-01-09T07:37:53.469Z,7.67
2023-01-09T07:40:20.507Z,7.65
2023-01-09T07:42:47.486Z,7.64
2023-01-09T07:45:14.566Z,7.67
2023-01-09T07:47:42.033Z,7.65
2023-01-09T07:50:09.995Z,7.64
2023-01-09T07:52:36.950Z,7.62
2023-01-09T07:55:05.463Z,7.67
2023-01-09T07:57:32.460Z,7.69
2023-01-09T08:00:01.047Z,7.71
2023-01-09T08:02:28.171Z,7.77
2023-01-09T08:04:55.246Z,7.74
2023-01-09T08:07:22.168Z,7.86
2023-01-09T08:09:49.173Z,7.89
2023-01-09T08:12:16.270Z,7.83
2023-01-09T08:14:43.193Z,7.96
2023-01-09T08:17:11.695Z,7.94
2023-01-09T08:19:40.150Z,7.79
2023-01-09T08:22:07.132Z,7.94
2023-01-09T08:24:34.344Z,7.84
2023-01-09T08:27:01.318Z,7.93
2023-01-09T08:29:30.392Z,7.87
2023-01-09T08:31:57.474Z,8.08
2023-01-09T08:34:24.383Z,8.07
2023-01-09T08:36:53.234Z,7.96
2023-01-09T08:39:20.277Z,8.09
2023-01-09T08:42:05.645Z,8.32
2023-01-09T08:44:51.099Z,8.16
2023-01-09T08:47:22.395Z,8.02
2023-01-09T08:49:49.458Z,7.91
2023-01-09T08:52:16.507Z,8.11
2023-01-09T08:54:43.448Z,7.85
2023-01-09T08:57:10.352Z,7.93
2023-01-09T08:59:37.402Z,7.99
2023-01-09T09:02:04.300Z,7.96
2023-01-09T09:04:31.211Z,8.04
2023-01-09T09:06:58.251Z,8.06
2023-01-09T09:09:25.813Z,8.04
2023-01-09T09:11:52.831Z,7.98
2023-01-09T09:14:38.162Z,8.00
2023-01-09T09:17:05.146Z,7.91
2023-01-09T09:19:32.182Z,7.96
2023-01-09T09:21:59.196Z,7.96
2023-01-09T09:24:26.187Z,7.98
2023-01-09T09:26:53.213Z,7.93
2023-01-09T09:29:20.209Z,7.97
2023-01-09T09:31:48.168Z,7.89
2023-01-09T09:34:15.191Z,7.90
2023-01-09T09:36:42.127Z,8.04
2023-01-09T09:39:09.315Z,7.97
2023-01-09T09:42:20.940Z,8.10
2023-01-09T09:45:37.280Z,8.03
2023-01-09T09:48:38.199Z,8.08
2023-01-09T09:51:48.358Z,8.07
2023-01-09T09:54:23.048Z,8.17
2023-01-09T09:56:59.982Z,8.20
2023-01-09T09:59:37.102Z,8.21
2023-01-09T10:02:10.089Z,8.13
2023-01-09T10:04:49.193Z,8.34
2023-01-09T10:07:29.927Z,8.51
2023-01-09T10:10:05.046Z,8.38
2023-01-09T10:12:44.233Z,8.55
2023-01-09T10:15:40.571Z,8.57
2023-01-09T10:18:38.797Z,8.46
2023-01-09T10:21:26.534Z,8.56
2023-01-09T10:24:25.841Z,8.67
2023-01-09T10:26:57.129Z,8.58
2023-01-09T10:29:48.326Z,8.45
2023-01-09T10:32:52.145Z,8.68
2023-01-09T10:36:01.342Z,8.67
2023-01-09T10:38:40.644Z,8.70
2023-01-09T10:41:16.718Z,8.61
2023-01-09T10:44:05.859Z,8.52
2023-01-09T10:46:47.292Z,8.57
2023-01-09T10:49:17.726Z,8.48
2023-01-09T10:51:51.730Z,8.59
2023-01-09T10:54:23.559Z,8.65
2023-01-09T10:57:13.633Z,8.72
2023-01-09T10:59:43.659Z,8.74
2023-01-09T11:02:32.383Z,8.70
2023-01-09T11:04:59.296Z,8.60
2023-01-09T11:07:32.127Z,8.56
2023-01-09T11:10:12.108Z,8.44
2023-01-09T11:12:40.251Z,8.54
2023-01-09T11:15:16.581Z,8.49
2023-01-09T11:17:44.520Z,8.61
2023-01-09T11:20:23.427Z,8.60
2023-01-09T11:22:57.269Z,8.45
2023-01-09T11:25:28.223Z,8.53
2023-01-09T11:28:05.038Z,8.45
2023-01-09T11:30:37.020Z,8.39
2023-01-09T11:33:18.422Z,8.28
2023-01-09T11:36:12.099Z,8.27
2023-01-09T11:38:55.701Z,8.29
2023-01-09T11:41:27.519Z,8.16
2023-01-09T11:43:58.624Z,8.36
2023-01-09T11:46:37.558Z,8.28
2023-01-09T11:49:14.635Z,8.30
2023-01-09T11:51:43.254Z,8.31
2023-01-09T11:54:30.809Z,8.33
2023-01-09T11:56:57.743Z,8.36
2023-01-09T11:59:31.556Z,8.48
2023-01-09T12:02:12.809Z,8.44
2023-01-09T12:05:09.126Z,8.33
2023-01-09T12:08:18.125Z,8.65
2023-01-09T12:10:58.814Z,8.65
2023-01-09T12:13:25.593Z,8.76
2023-01-09T12:16:26.591Z,8.87
2023-01-09T12:19:25.203Z,9.01
2023-01-09T12:22:13.382Z,8.99
2023-01-09T12:24:53.248Z,8.87
2023-01-09T12:27:49.463Z,8.64
2023-01-09T12:31:00.160Z,8.47
2023-01-09T12:33:54.070Z,8.45
2023-01-09T12:37:11.569Z,8.36
2023-01-09T12:40:09.048Z,8.27
2023-01-09T12:42:46.846Z,8.48
2023-01-09T12:45:47.610Z,8.56
2023-01-09T12:49:02.449Z,8.59
2023-01-09T12:52:09.873Z,8.92
2023-01-09T12:54:46.012Z,9.11
2023-01-09T12:57:23.205Z,9.21
2023-01-09T13:00:00.804Z,9.48
2023-01-09T13:03:12.542Z,9.78
2023-01-09T13:05:45.279Z,9.81
2023-01-09T13:08:23.520Z,9.75
2023-01-09T13:11:14.836Z,9.32
2023-01-09T13:14:06.388Z,9.25
2023-01-09T13:17:00.097Z,9.35
2023-01-09T13:19:42.284Z,9.18
2023-01-09T13:22:14.526Z,9.08
2023-01-09T13:25:27.186Z,9.06
2023-01-09T13:28:12.591Z,8.88
2023-01-09T13:31:36.269Z,8.89
2023-01-09T13:34:14.213Z,9.01
2023-01-09T13:36:51.448Z,8.73
2023-01-09T13:39:26.403Z,8.91
2023-01-09T13:42:22.846Z,8.87
2023-01-09T13:44:55.982Z,9.05
2023-01-09T13:47:28.353Z,9.15
2023-01-09T13:50:09.180Z,9.04
2023-01-09T13:52:41.885Z,9.03
2023-01-09T13:55:11.729Z,8.85
2023-01-09T13:57:43.584Z,8.91
2023-01-09T14:00:14.449Z,8.98
2023-01-09T14:02:41.672Z,8.89
2023-01-09T14:05:14.480Z,8.86
2023-01-09T14:07:52.778Z,8.77
2023-01-09T14:10:30.411Z,8.72
2023-01-09T14:12:58.324Z,8.84
2023-01-09T14:15:39.620Z,8.66
2023-01-09T14:18:17.156Z,8.58
2023-01-09T14:23:52.766Z,8.34
2023-01-09T14:26:41.059Z,8.21
2023-01-09T14:29:36.133Z,8.28
2023-01-09T14:32:24.968Z,8.32
2023-01-09T14:35:14.216Z,8.14
2023-01-09T14:37:44.022Z,8.22
2023-01-09T14:40:23.375Z,8.23
2023-01-09T14:42:54.529Z,8.16
2023-01-09T14:45:27.371Z,8.14
2023-01-09T14:48:11.321Z,8.03
2023-01-09T14:50:55.413Z,7.97
2023-01-09T14:53:36.913Z,8.04
2023-01-09T14:56:06.717Z,8.07
2023-01-09T14:58:37.644Z,8.09
2023-01-09T15:01:10.782Z,8.10
2023-01-09T15:03:50.008Z,8.12
2023-01-09T15:06:23.632Z,8.01
2023-01-09T15:09:01.775Z,7.92
2023-01-09T15:11:30.228Z,7.90
2023-01-09T15:14:00.186Z,7.89
2023-01-09T15:16:28.410Z,7.93
2023-01-09T15:19:09.073Z,7.87
2023-01-09T15:21:36.109Z,7.82
2023-01-09T15:24:21.584Z,7.70
2023-01-09T15:27:15.276Z,7.86
2023-01-09T15:29:42.274Z,7.85
2023-01-09T15:32:28.352Z,7.93
2023-01-09T15:34:57.082Z,7.86
2023-01-09T15:37:33.777Z,7.85
2023-01-09T15:40:04.372Z,7.84
2023-01-09T15:42:57.332Z,7.84
2023-01-09T15:45:27.023Z,7.79
2023-01-09T15:47:55.660Z,7.93
2023-01-09T15:50:29.337Z,7.94
2023-01-09T15:52:57.093Z,7.85
2023-01-09T15:55:35.245Z,7.90
2023-01-09T15:58:47.339Z,7.76
2023-01-09T16:01:35.994Z,7.69
2023-01-09T16:04:15.778Z,7.61
2023-01-09T16:06:51.411Z,7.59
2023-01-09T16:09:26.321Z,7.63
2023-01-09T16:12:00.482Z,7.60
2023-01-09T16:14:38.650Z,7.74
2023-01-09T16:17:18.004Z,7.85
2023-01-09T16:19:58.127Z,7.79
2023-01-09T16:22:30.288Z,7.70
2023-01-09T16:25:04.086Z,7.60
2023-01-09T16:27:34.590Z,7.67
2023-01-09T16:30:05.732Z,7.70
2023-01-09T16:32:55.364Z,7.66
2023-01-09T16:35:26.231Z,7.55
2023-01-09T16:37:53.186Z,7.74
2023-01-09T16:40:26.771Z,7.58
2023-01-09T16:43:07.189Z,7.65
2023-01-09T16:45:41.970Z,7.73
2023-01-09T16:48:17.405Z,7.70
2023-01-09T16:50:44.768Z,7.65
2023-01-09T16:53:22.647Z,7.57
2023-01-09T16:55:51.031Z,7.51
2023-01-09T16:58:34.318Z,7.49
2023-01-09T17:01:01.454Z,7.49
2023-01-09T17:03:28.547Z,7.43
2023-01-09T17:06:01.047Z,7.50
2023-01-09T17:08:32.778Z,7.32
2023-01-09T17:10:59.940Z,7.24
2023-01-09T17:13:27.757Z,7.17
2023-01-09T17:15:57.137Z,7.28
2023-01-09T17:18:26.500Z,7.25
2023-01-09T17:20:59.320Z,7.15
2023-01-09T17:23:26.735Z,7.21
2023-01-09T17:26:18.870Z,7.20
2023-01-09T17:28:52.302Z,7.20
2023-01-09T17:31:19.599Z,7.24
2023-01-09T17:33:46.858Z,7.19
2023-01-09T17:36:26.694Z,7.15
2023-01-09T17:38:55.264Z,7.14
2023-01-09T17:41:23.835Z,7.17
2023-01-09T17:43:51.612Z,7.27
2023-01-09T17:46:30.538Z,7.14
2023-01-09T17:48:58.331Z,7.31
2023-01-09T17:51:26.113Z,7.10
2023-01-09T17:53:53.347Z,7.24
2023-01-09T17:56:28.474Z,7.34
2023-01-09T17:58:55.616Z,7.20
2023-01-09T18:01:22.927Z,7.21
2023-01-09T18:03:50.717Z,7.25
2023-01-09T18:06:21.511Z,7.19
2023-01-09T18:08:48.456Z,7.32
2023-01-09T18:11:19.538Z,7.31
2023-01-09T18:13:49.747Z,7.24
2023-01-09T18:16:20.600Z,7.44
2023-01-09T18:18:48.331Z,7.32
2023-01-09T18:21:18.889Z,7.28
2023-01-09T18:23:47.641Z,7.34
2023-01-09T18:26:20.861Z,7.53
2023-01-09T18:28:59.970Z,7.39
2023-01-09T18:31:30.595Z,7.38
2023-01-09T18:34:02.064Z,7.24
2023-01-09T18:36:30.020Z,7.37
2023-01-09T18:39:00.171Z,7.29
2023-01-09T18:41:27.979Z,7.42
2023-01-09T18:43:58.509Z,7.36
2023-01-09T18:46:30.606Z,7.32
2023-01-09T18:49:01.475Z,7.35
2023-01-09T18:51:29.865Z,7.36
2023-01-09T18:53:57.095Z,7.48
2023-01-09T18:56:24.786Z,7.33
2023-01-09T18:58:57.118Z,7.36
2023-01-09T19:01:28.581Z,7.29
2023-01-09T19:03:57.340Z,7.31
2023-01-09T19:06:24.551Z,7.44
2023-01-09T19:08:51.527Z,7.28
2023-01-09T19:11:18.454Z,7.27
2023-01-09T19:13:45.445Z,7.27
2023-01-09T19:16:12.608Z,7.12
2023-01-09T19:18:41.834Z,7.05
2023-01-09T19:21:22.148Z,7.03
2023-01-09T19:23:49.749Z,6.89
2023-01-09T19:26:23.830Z,7.06
2023-01-09T19:28:55.028Z,7.07
2023-01-09T19:31:24.550Z,7.20
2023-01-09T19:33:52.786Z,7.18
2023-01-09T19:36:21.149Z,7.19
2023-01-09T19:38:48.495Z,7.14
2023-01-09T19:41:19.470Z,7.06
2023-01-09T19:43:47.521Z,7.07
2023-01-09T19:46:18.601Z,7.11
2023-01-09T19:48:46.494Z,7.03
2023-01-09T19:51:15.586Z,6.95
2023-01-09T19:53:42.706Z,7.15
2023-01-09T19:56:19.373Z,7.13
2023-01-09T19:58:55.684Z,7.04
2023-01-09T20:01:26.807Z,7.20
2023-01-09T20:03:56.468Z,7.09
2023-01-09T20:06:25.168Z,7.15
2023-01-09T20:08:57.534Z,7.09
2023-01-09T20:11:27.165Z,7.09
2023-01-09T20:13:55.639Z,7.15
2023-01-09T20:16:30.149Z,7.05
2023-01-09T20:19:00.150Z,7.21
2023-01-09T20:21:28.962Z,7.05
2023-01-09T20:23:59.759Z,7.17
2023-01-09T20:26:28.255Z,7.10
2023-01-09T20:28:55.564Z,6.97
2023-01-09T20:31:27.922Z,7.03
2023-01-09T20:33:55.734Z,6.99
2023-01-09T20:36:27.487Z,6.99
2023-01-09T20:38:55.421Z,6.98
2023-01-09T20:41:23.247Z,6.82
2023-01-09T20:43:59.160Z,6.83
2023-01-09T20:46:33.220Z,6.85
2023-01-09T20:49:06.493Z,6.87
2023-01-09T20:51:35.447Z,6.86
2023-01-09T20:54:03.614Z,6.87
2023-01-09T20:56:32.289Z,7.04
2023-01-09T20:59:00.654Z,6.93
2023-01-09T21:01:28.412Z,6.94
2023-01-09T21:03:58.067Z,6.94
2023-01-09T21:06:26.319Z,6.83
2023-01-09T21:08:53.343Z,6.96
2023-01-09T21:11:22.513Z,7.03
2023-01-09T21:13:50.461Z,6.94
2023-01-09T21:16:21.407Z,7.03
2023-01-09T21:18:49.368Z,7.23
2023-01-09T21:21:23.565Z,7.15
2023-01-09T21:23:54.095Z,7.06
2023-01-09T21:26:26.036Z,7.11
2023-01-09T21:28:55.199Z,7.10
2023-01-09T21:31:34.576Z,7.14
2023-01-09T21:34:07.485Z,7.15
2023-01-09T21:36:35.405Z,7.13
2023-01-09T21:39:07.472Z,7.11
2023-01-09T21:41:55.294Z,7.02
2023-01-09T21:44:40.594Z,7.20
2023-01-09T21:47:07.591Z,7.10
2023-01-09T21:49:36.086Z,7.22
2023-01-09T21:52:04.538Z,7.33
2023-01-09T21:54:31.782Z,7.25
2023-01-09T21:56:59.227Z,7.26
2023-01-09T21:59:27.681Z,7.11
2023-01-09T22:01:54.832Z,7.25
2023-01-09T22:04:25.722Z,7.32
2023-01-09T22:06:52.736Z,7.24
2023-01-09T22:09:19.772Z,7.24
2023-01-09T22:11:47.390Z,7.24
2023-01-09T22:14:17.236Z,7.41
2023-01-09T22:16:45.677Z,7.27
2023-01-09T22:19:14.381Z,7.13
2023-01-09T22:21:41.356Z,7.16
2023-01-09T22:24:15.302Z,7.19
2023-01-09T22:26:42.384Z,7.29
2023-01-09T22:29:09.383Z,7.25
2023-01-09T22:31:39.774Z,7.10
2023-01-09T22:34:06.910Z,7.26
2023-01-09T22:36:33.994Z,7.13
2023-01-09T22:39:01.408Z,7.09
2023-01-09T22:41:30.505Z,6.95
2023-01-09T22:43:58.347Z,6.94
2023-01-09T22:46:25.775Z,6.90
2023-01-09T22:48:52.686Z,6.81
2023-01-09T22:51:21.343Z,6.82
2023-01-09T22:53:49.317Z,6.90
2023-01-09T22:56:22.096Z,6.93
2023-01-09T22:58:58.409Z,6.82
2023-01-09T23:01:25.508Z,6.88
2023-01-09T23:03:52.587Z,6.85
2023-01-09T23:06:22.283Z,6.75
2023-01-09T23:08:51.071Z,6.91
2023-01-09T23:11:46.044Z,6.77
2023-01-09T23:14:13.404Z,6.69
2023-01-09T23:16:40.544Z,6.72
2023-01-09T23:19:14.353Z,6.69
2023-01-09T23:21:42.300Z,6.65
2023-01-09T23:24:09.684Z,6.64
2023-01-09T23:26:38.683Z,6.67
2023-01-09T23:29:07.328Z,6.63
2023-01-09T23:31:34.657Z,6.54
2023-01-09T23:34:02.306Z,6.58
2023-01-09T23:36:29.246Z,6.60
2023-01-09T23:38:56.767Z,6.81
2023-01-09T23:41:43.635Z,6.67
2023-01-09T23:44:10.548Z,6.60
2023-01-09T23:46:37.425Z,6.66
2023-01-09T23:49:04.304Z,6.63
2023-01-09T23:51:31.264Z,6.52
2023-01-09T23:53:58.194Z,6.63
2023-01-09T23:56:25.140Z,6.65
2023-01-09T23:58:52.016Z,6.63
